Time;durP1;ratioP1;P1;durP2;ratioP2;P2;SDS_P1;SDS_P2;PMS_P1;PMS_P2;Temp;Humidity;BMP_temperature;BMP_pressure;BME280_temperature;BME280_humidity;BME280_pressure;Samples;Min_cycle;Max_cycle;Signal;HPM_P1;HPM_P2
2024/01/04 00:02:12;;;;;;;1.45;0.85;;;16.10;63.10;;;;;;5111486;28;20260;-63
2024/01/04 00:04:40;;;;;;;3.33;0.90;;;16.10;63.20;;;;;;5111962;28;20180;-63
2024/01/04 00:07:05;;;;;;;0.85;0.60;;;16.10;63.20;;;;;;5111968;28;20220;-63
2024/01/04 00:09:31;;;;;;;1.65;0.80;;;16.10;63.20;;;;;;5111085;28;20169;-63
2024/01/04 00:11:56;;;;;;;1.70;0.80;;;16.10;63.20;;;;;;5112024;28;20242;-63
2024/01/04 00:14:22;;;;;;;1.20;0.80;;;16.10;63.30;;;;;;5111569;28;20564;-63
2024/01/04 00:16:47;;;;;;;1.58;0.80;;;16.00;63.20;;;;;;5111076;28;20169;-63
2024/01/04 00:19:13;;;;;;;0.80;0.60;;;16.00;63.30;;;;;;5112009;28;20181;-63
2024/01/04 00:21:38;;;;;;;0.70;0.70;;;16.10;63.40;;;;;;5112024;28;20173;-63
2024/01/04 00:24:04;;;;;;;1.88;0.82;;;16.00;63.40;;;;;;5111170;28;20176;-63
2024/01/04 00:26:30;;;;;;;0.75;0.60;;;16.00;63.30;;;;;;5111256;28;20329;-63
2024/01/04 00:28:57;;;;;;;1.42;1.05;;;16.00;63.40;;;;;;5114741;28;20173;-63
2024/01/04 00:31:22;;;;;;;0.80;0.80;;;16.00;63.40;;;;;;5115673;28;20184;-64
2024/01/04 00:33:48;;;;;;;0.75;0.57;;;16.00;63.40;;;;;;5115769;28;20177;-63
2024/01/04 00:36:14;;;;;;;1.27;0.75;;;16.00;63.60;;;;;;5114781;28;20169;-63
2024/01/04 00:38:40;;;;;;;0.93;0.63;;;16.00;63.50;;;;;;5115778;28;20174;-64
2024/01/04 00:41:05;;;;;;;1.67;1.02;;;16.00;63.50;;;;;;5115610;28;20302;-64
2024/01/04 00:43:31;;;;;;;1.58;0.80;;;16.00;63.60;;;;;;5114383;28;20184;-63
2024/01/04 00:45:56;;;;;;;0.82;0.77;;;15.90;63.50;;;;;;5115487;28;20180;-63
2024/01/04 00:48:22;;;;;;;1.35;0.95;;;16.00;63.60;;;;;;5115187;28;20299;-63
2024/01/04 00:50:47;;;;;;;2.00;0.70;;;16.00;63.60;;;;;;5114931;28;20181;-63
2024/01/04 00:53:13;;;;;;;1.10;0.77;;;15.90;63.50;;;;;;5115358;28;20165;-63
2024/01/04 00:55:40;;;;;;;1.05;0.75;;;15.90;63.50;;;;;;5115033;28;20240;-63
2024/01/04 00:58:06;;;;;;;2.03;0.80;;;15.90;63.50;;;;;;5114610;28;20229;-63
2024/01/04 01:00:32;;;;;;;1.40;0.63;;;15.90;63.50;;;;;;5114859;28;20169;-62
2024/01/04 01:02:58;;;;;;;1.20;0.80;;;15.90;63.60;;;;;;5115289;28;20177;-63
2024/01/04 01:05:23;;;;;;;1.30;0.88;;;15.90;63.60;;;;;;5114107;28;20589;-63
2024/01/04 01:07:49;;;;;;;0.95;0.88;;;15.90;63.60;;;;;;5115128;28;20670;-63
2024/01/04 01:10:14;;;;;;;1.17;0.80;;;15.90;63.60;;;;;;5114730;28;20532;-63
2024/01/04 01:12:40;;;;;;;0.85;0.85;;;15.90;63.60;;;;;;5114137;28;20627;-63
2024/01/04 01:15:06;;;;;;;1.13;0.60;;;15.90;63.60;;;;;;5114887;28;20177;-63
2024/01/04 01:17:31;;;;;;;0.57;0.50;;;15.90;63.60;;;;;;5114455;28;20188;-63
2024/01/04 01:19:57;;;;;;;0.98;0.68;;;15.90;63.70;;;;;;5114173;28;20268;-62
2024/01/04 01:22:24;;;;;;;0.82;0.80;;;15.90;63.70;;;;;;5113551;28;20242;-63
2024/01/04 01:24:50;;;;;;;2.13;0.73;;;15.90;63.70;;;;;;5114750;28;20260;-63
2024/01/04 01:27:15;;;;;;;1.70;0.95;;;15.90;63.70;;;;;;5113536;28;20543;-63
2024/01/04 01:29:41;;;;;;;1.10;0.80;;;15.90;63.70;;;;;;5114730;28;20546;-62
2024/01/04 01:32:06;;;;;;;1.10;0.80;;;15.90;63.70;;;;;;5114546;28;20639;-63
2024/01/04 01:34:32;;;;;;;1.33;0.80;;;15.90;63.70;;;;;;5113558;28;20177;-63
2024/01/04 01:36:58;;;;;;;1.08;0.68;;;15.90;63.70;;;;;;5114458;28;20181;-63
2024/01/04 01:39:24;;;;;;;0.90;0.70;;;15.90;63.70;;;;;;5112874;28;20181;-63
2024/01/04 01:41:51;;;;;;;2.85;0.75;;;15.80;63.70;;;;;;5114265;28;20202;-63
2024/01/04 01:44:17;;;;;;;1.55;0.85;;;15.80;63.70;;;;;;5114195;28;20195;-64
2024/01/04 01:46:43;;;;;;;1.77;0.90;;;15.80;63.70;;;;;;5113668;28;20287;-63
2024/01/04 01:49:08;;;;;;;0.98;0.70;;;15.80;63.70;;;;;;5114337;28;20201;-63
2024/01/04 01:51:34;;;;;;;1.50;0.80;;;15.80;63.70;;;;;;5113840;28;20668;-63
2024/01/04 01:53:59;;;;;;;0.75;0.75;;;15.80;63.70;;;;;;5113308;28;20254;-63
2024/01/04 01:56:25;;;;;;;1.85;0.70;;;15.80;63.70;;;;;;5113487;28;20216;-63
2024/01/04 01:58:50;;;;;;;2.17;1.05;;;15.80;63.70;;;;;;5095917;28;20177;-63
2024/01/04 02:01:16;;;;;;;0.93;0.70;;;15.80;63.80;;;;;;5078118;28;20173;-63
2024/01/04 02:03:41;;;;;;;0.95;0.65;;;15.80;63.70;;;;;;5113841;28;20183;-63
2024/01/04 02:06:07;;;;;;;1.15;0.73;;;15.80;63.70;;;;;;5078898;28;20252;-63
2024/01/04 02:08:32;;;;;;;1.77;0.70;;;15.80;63.70;;;;;;5112631;28;20670;-63
2024/01/04 02:10:58;;;;;;;2.88;1.05;;;15.70;63.60;;;;;;5113734;28;20177;-63
2024/01/04 02:13:23;;;;;;;0.70;0.60;;;15.70;63.70;;;;;;5113570;28;20176;-62
2024/01/04 02:15:49;;;;;;;1.15;0.68;;;15.70;63.70;;;;;;5112841;28;20699;-63
2024/01/04 02:18:15;;;;;;;1.27;0.90;;;15.80;63.70;;;;;;5113351;28;20181;-63
2024/01/04 02:20:40;;;;;;;1.33;0.70;;;15.80;63.90;;;;;;5113520;28;20203;-63
2024/01/04 02:23:06;;;;;;;1.58;0.70;;;15.80;63.80;;;;;;5112729;28;20181;-63
2024/01/04 02:25:31;;;;;;;0.70;0.65;;;15.80;63.80;;;;;;5113199;28;20169;-63
2024/01/04 02:27:57;;;;;;;1.55;0.80;;;15.70;63.80;;;;;;5113556;28;20288;-62
2024/01/04 02:30:22;;;;;;;2.45;1.10;;;15.70;63.80;;;;;;5112585;28;20170;-62
2024/01/04 02:32:48;;;;;;;3.00;1.00;;;15.70;63.90;;;;;;5113299;28;20173;-63
2024/01/04 02:35:13;;;;;;;1.05;0.95;;;15.80;63.90;;;;;;5113209;28;20184;-63
2024/01/04 02:37:39;;;;;;;2.47;0.73;;;15.70;63.90;;;;;;5112571;28;20636;-63
2024/01/04 02:40:05;;;;;;;2.13;0.80;;;15.70;63.80;;;;;;5113114;28;20165;-63
2024/01/04 02:42:32;;;;;;;1.85;0.88;;;15.70;64.40;;;;;;5112903;28;20192;-63
2024/01/04 02:44:57;;;;;;;0.75;0.75;;;15.70;63.90;;;;;;5113013;28;20169;-63
2024/01/04 02:47:23;;;;;;;0.80;0.70;;;15.70;63.90;;;;;;5112580;28;20265;-63
2024/01/04 02:49:48;;;;;;;0.98;0.60;;;15.70;63.90;;;;;;5111549;28;20177;-63
2024/01/04 02:52:14;;;;;;;0.77;0.73;;;15.70;63.90;;;;;;5112681;28;20291;-62
2024/01/04 02:54:40;;;;;;;1.30;0.70;;;15.70;63.90;;;;;;5112605;28;20165;-64
2024/01/04 02:57:05;;;;;;;0.73;0.65;;;15.70;63.90;;;;;;5112449;28;20181;-63
2024/01/04 02:59:31;;;;;;;1.52;0.85;;;15.70;63.90;;;;;;5112671;28;20263;-62
2024/01/04 03:01:57;;;;;;;2.15;1.08;;;15.70;63.90;;;;;;5112944;28;20256;-63
2024/01/04 03:04:23;;;;;;;1.20;0.50;;;15.60;63.90;;;;;;5111864;28;20208;-63
2024/01/04 03:06:49;;;;;;;0.85;0.60;;;15.70;63.90;;;;;;5112618;28;20232;-63
2024/01/04 03:09:15;;;;;;;1.20;0.90;;;15.70;64.00;;;;;;5112315;28;20227;-63
2024/01/04 03:11:40;;;;;;;0.70;0.70;;;15.70;63.90;;;;;;5112116;28;20535;-62
2024/01/04 03:14:06;;;;;;;1.27;0.77;;;15.60;63.80;;;;;;5112701;28;20587;-62
2024/01/04 03:16:31;;;;;;;1.00;0.70;;;15.60;63.90;;;;;;5112349;28;20573;-62
2024/01/04 03:18:57;;;;;;;1.48;0.80;;;15.60;63.90;;;;;;5111791;28;20173;-63
2024/01/04 03:21:22;;;;;;;0.82;0.73;;;15.60;63.90;;;;;;5112139;28;20188;-63
2024/01/04 03:23:48;;;;;;;0.98;0.63;;;15.60;63.80;;;;;;5112312;28;20628;-63
2024/01/04 03:26:13;;;;;;;1.10;0.60;;;15.60;63.80;;;;;;5111474;28;20169;-63
2024/01/04 03:28:39;;;;;;;1.05;0.65;;;15.60;63.90;;;;;;5112193;28;20220;-62
2024/01/04 03:31:05;;;;;;;0.70;0.63;;;15.60;63.90;;;;;;5112333;28;20256;-63
2024/01/04 03:33:30;;;;;;;1.05;0.70;;;15.60;63.90;;;;;;5111281;28;20739;-63
2024/01/04 03:35:56;;;;;;;1.67;0.55;;;15.60;63.90;;;;;;5112276;28;20184;-63
2024/01/04 03:38:22;;;;;;;1.08;0.55;;;15.60;63.90;;;;;;5111832;28;20271;-63
2024/01/04 03:40:47;;;;;;;1.15;0.90;;;15.60;63.80;;;;;;5111639;28;20263;-63
2024/01/04 03:43:13;;;;;;;1.27;0.82;;;15.60;63.90;;;;;;5112113;28;20540;-63
2024/01/04 03:45:38;;;;;;;1.73;0.77;;;15.60;63.90;;;;;;5111764;28;20225;-63
2024/01/04 03:48:04;;;;;;;1.52;0.88;;;15.60;63.80;;;;;;5111289;28;20265;-63
2024/01/04 03:50:29;;;;;;;1.00;0.70;;;15.60;63.80;;;;;;5111575;28;20234;-63
2024/01/04 03:52:55;;;;;;;1.23;0.77;;;15.60;63.90;;;;;;5111250;28;20181;-63
2024/01/04 03:55:20;;;;;;;1.73;0.70;;;15.50;63.90;;;;;;5111455;28;20216;-63
2024/01/04 03:57:46;;;;;;;1.02;0.70;;;15.60;63.90;;;;;;5112132;28;20183;-63
2024/01/04 04:00:12;;;;;;;1.65;0.98;;;15.50;63.90;;;;;;5111417;28;20164;-63
2024/01/04 04:02:38;;;;;;;1.92;0.70;;;15.60;63.90;;;;;;5096943;28;20199;-63
2024/01/04 04:05:03;;;;;;;1.98;0.80;;;15.50;63.90;;;;;;5116319;28;20247;-62
2024/01/04 04:07:29;;;;;;;0.75;0.70;;;15.60;63.90;;;;;;5115077;28;20208;-63
2024/01/04 04:09:55;;;;;;;1.42;0.77;;;15.60;64.00;;;;;;5116086;28;20177;-63
2024/01/04 04:12:21;;;;;;;1.20;0.80;;;15.60;63.90;;;;;;5116037;28;20188;-62
2024/01/04 04:14:47;;;;;;;0.95;0.77;;;15.50;63.90;;;;;;5115538;28;20245;-63
2024/01/04 04:17:14;;;;;;;1.05;0.70;;;15.50;63.90;;;;;;5116048;28;20169;-62
2024/01/04 04:19:39;;;;;;;0.60;0.60;;;15.50;63.90;;;;;;5115933;28;20169;-63
2024/01/04 04:22:05;;;;;;;0.68;0.50;;;15.50;63.90;;;;;;5115286;28;20169;-63
2024/01/04 04:24:31;;;;;;;1.23;0.60;;;15.50;63.90;;;;;;5115796;28;20165;-62
2024/01/04 04:26:56;;;;;;;1.27;0.73;;;15.50;63.90;;;;;;5115964;28;20235;-63
2024/01/04 04:29:22;;;;;;;2.60;1.00;;;15.50;64.00;;;;;;5114756;28;20644;-62
2024/01/04 04:31:48;;;;;;;0.85;0.60;;;15.50;63.90;;;;;;5115865;28;20173;-62
2024/01/04 04:34:13;;;;;;;1.95;0.60;;;15.50;64.00;;;;;;5115341;28;20611;-63
2024/01/04 04:36:40;;;;;;;1.02;0.68;;;15.50;64.80;;;;;;5114831;28;20197;-63
2024/01/04 04:39:07;;;;;;;1.38;0.88;;;15.50;64.00;;;;;;5115426;28;20177;-64
2024/01/04 04:41:32;;;;;;;0.90;0.70;;;15.50;64.00;;;;;;5115178;28;20181;-64
2024/01/04 04:43:58;;;;;;;1.15;0.73;;;15.50;63.90;;;;;;5114931;28;20177;-63
2024/01/04 04:46:24;;;;;;;0.85;0.60;;;15.50;64.00;;;;;;5115126;28;20177;-63
2024/01/04 04:48:54;;;;;;;0.68;0.68;;;15.50;64.10;;;;;;5115320;28;20380;-63
2024/01/04 04:51:20;;;;;;;1.35;0.70;;;15.50;64.00;;;;;;5114475;28;20180;-63
2024/01/04 04:53:46;;;;;;;1.20;0.60;;;15.50;64.00;;;;;;5115501;28;20173;-63
2024/01/04 04:56:11;;;;;;;0.85;0.85;;;15.50;64.00;;;;;;5114656;28;20217;-63
2024/01/04 04:58:37;;;;;;;1.15;0.65;;;15.50;64.00;;;;;;5115013;28;20173;-63
2024/01/04 05:01:02;;;;;;;1.13;0.50;;;15.50;64.00;;;;;;5115230;28;20165;-63
2024/01/04 05:03:28;;;;;;;1.45;0.80;;;15.50;64.10;;;;;;5114254;28;20688;-63
2024/01/04 05:05:54;;;;;;;1.10;0.50;;;15.40;64.00;;;;;;5115108;28;20589;-63
2024/01/04 05:08:19;;;;;;;1.73;0.80;;;15.50;64.00;;;;;;5114845;28;20216;-63
2024/01/04 05:10:45;;;;;;;1.15;0.75;;;15.50;64.00;;;;;;5114278;28;20543;-63
2024/01/04 05:13:10;;;;;;;1.75;0.60;;;15.50;64.10;;;;;;5114010;28;20169;-63
2024/01/04 05:15:35;;;;;;;0.90;0.50;;;15.50;64.00;;;;;;5114627;28;20173;-63
2024/01/04 05:18:01;;;;;;;0.70;0.70;;;15.50;64.10;;;;;;5114059;28;20169;-63
2024/01/04 05:20:27;;;;;;;0.40;0.40;;;15.50;64.10;;;;;;5114429;28;20165;-63
2024/01/04 05:22:53;;;;;;;1.08;0.73;;;15.40;64.00;;;;;;5115004;28;20223;-63
2024/01/04 05:25:18;;;;;;;0.60;0.60;;;15.40;64.00;;;;;;5113976;28;20538;-63
2024/01/04 05:27:44;;;;;;;0.90;0.80;;;15.40;64.00;;;;;;5114499;28;20675;-63
2024/01/04 05:30:09;;;;;;;1.10;0.90;;;15.40;64.00;;;;;;5114782;28;20260;-63
2024/01/04 05:32:35;;;;;;;1.33;0.60;;;15.40;64.00;;;;;;5113665;28;20208;-63
2024/01/04 05:35:01;;;;;;;0.95;0.68;;;15.40;64.00;;;;;;5114363;28;20184;-63
2024/01/04 05:37:26;;;;;;;1.13;0.70;;;15.40;64.00;;;;;;5114335;28;20181;-63
2024/01/04 05:39:52;;;;;;;1.13;0.60;;;15.40;64.90;;;;;;5113891;28;20172;-64
2024/01/04 05:42:18;;;;;;;1.83;1.00;;;15.40;64.10;;;;;;5114250;28;20180;-63
2024/01/04 05:44:43;;;;;;;1.88;0.60;;;15.40;64.10;;;;;;5114281;28;20177;-63
2024/01/04 05:47:09;;;;;;;0.88;0.82;;;15.40;64.10;;;;;;5113360;28;20250;-63
2024/01/04 05:49:35;;;;;;;1.15;0.90;;;15.40;64.10;;;;;;5113921;28;20223;-63
2024/01/04 05:52:00;;;;;;;1.25;0.50;;;15.40;64.10;;;;;;5114288;28;20253;-64
2024/01/04 05:54:26;;;;;;;1.38;0.70;;;15.40;64.10;;;;;;5113194;28;20173;-63
2024/01/04 05:56:51;;;;;;;0.50;0.50;;;15.40;64.10;;;;;;5113998;28;20277;-63
2024/01/04 05:59:17;;;;;;;0.77;0.65;;;15.40;64.10;;;;;;5113941;28;20196;-63
2024/01/04 06:01:42;;;;;;;0.88;0.43;;;15.40;64.10;;;;;;5113380;28;20554;-63
2024/01/04 06:04:08;;;;;;;0.60;0.60;;;15.40;64.10;;;;;;5113886;28;20620;-63
2024/01/04 06:06:33;;;;;;;0.95;0.68;;;15.40;64.10;;;;;;5112715;28;20181;-63
2024/01/04 06:08:59;;;;;;;0.73;0.60;;;15.40;64.20;;;;;;5114141;28;20188;-63
2024/01/04 06:11:24;;;;;;;1.55;0.80;;;15.30;64.10;;;;;;5113710;28;20176;-63
2024/01/04 06:13:50;;;;;;;0.95;0.60;;;15.30;64.10;;;;;;5113318;28;20169;-62
2024/01/04 06:16:17;;;;;;;0.98;0.73;;;15.40;64.10;;;;;;5113539;28;20169;-63
2024/01/04 06:18:42;;;;;;;0.77;0.70;;;15.30;64.10;;;;;;5113563;28;20184;-63
2024/01/04 06:21:08;;;;;;;1.63;0.75;;;15.40;64.10;;;;;;5112959;28;20488;-63
2024/01/04 06:23:33;;;;;;;0.77;0.60;;;15.40;64.10;;;;;;5113317;28;20180;-62
2024/01/04 06:25:59;;;;;;;0.95;0.82;;;15.40;64.10;;;;;;5113742;28;20177;-63
2024/01/04 06:28:24;;;;;;;0.75;0.57;;;15.30;64.10;;;;;;5111834;28;20233;-63
2024/01/04 06:30:50;;;;;;;1.08;0.98;;;15.40;64.20;;;;;;5113606;28;20181;-62
2024/01/04 06:33:16;;;;;;;1.02;0.70;;;15.40;64.10;;;;;;5113104;28;20204;-63
2024/01/04 06:35:42;;;;;;;0.82;0.70;;;15.30;64.00;;;;;;5112658;28;20165;-63
2024/01/04 06:38:08;;;;;;;0.70;0.70;;;15.30;64.10;;;;;;5113347;28;20530;-63
2024/01/04 06:40:40;;;;;;;0.77;0.60;;;15.40;64.50;;;;;;5113157;28;20256;-63
2024/01/04 06:43:09;;;;;;;0.63;0.63;;;15.30;64.10;;;;;;5112576;28;20303;-63
2024/01/04 06:45:36;;;;;;;0.88;0.55;;;15.30;64.10;;;;;;5112971;28;20192;-63
2024/01/04 06:48:01;;;;;;;1.02;0.80;;;15.30;64.10;;;;;;5113018;28;20208;-63
2024/01/04 06:50:27;;;;;;;1.83;0.90;;;15.30;64.20;;;;;;5112253;28;20169;-63
2024/01/04 06:52:52;;;;;;;0.93;0.75;;;15.40;64.10;;;;;;5113295;28;20241;-63
2024/01/04 06:55:18;;;;;;;1.17;0.60;;;15.40;64.10;;;;;;5112729;28;20273;-63
2024/01/04 06:57:44;;;;;;;0.98;0.50;;;15.50;64.10;;;;;;5112373;28;20243;-63
2024/01/04 07:00:09;;;;;;;0.70;0.60;;;15.60;64.20;;;;;;5113011;28;20223;-63
2024/01/04 07:02:35;;;;;;;0.75;0.60;;;15.70;64.00;;;;;;5112482;28;20636;-62
2024/01/04 07:05:05;;;;;;;0.95;0.60;;;15.80;63.80;;;;;;5112137;28;20654;-63
2024/01/04 07:07:31;;;;;;;0.82;0.50;;;16.00;63.50;;;;;;5112402;28;20709;-63
2024/01/04 07:09:57;;;;;;;0.68;0.55;;;16.10;63.20;;;;;;5112248;28;20261;-63
2024/01/04 07:12:24;;;;;;;1.00;0.70;;;16.30;63.00;;;;;;5112565;28;20659;-63
2024/01/04 07:14:49;;;;;;;0.80;0.50;;;16.40;62.60;;;;;;5112744;28;20276;-63
2024/01/04 07:17:16;;;;;;;0.75;0.60;;;16.60;62.40;;;;;;5111606;28;20675;-63
2024/01/04 07:19:45;;;;;;;0.93;0.40;;;16.70;62.20;;;;;;5112748;28;20181;-63
2024/01/04 07:22:10;;;;;;;1.08;0.82;;;16.70;62.00;;;;;;5112468;28;20268;-63
2024/01/04 07:24:36;;;;;;;1.45;0.50;;;16.80;61.80;;;;;;5111563;28;20260;-62
2024/01/04 07:27:03;;;;;;;1.45;0.68;;;16.80;61.60;;;;;;5112463;28;20683;-62
2024/01/04 07:29:28;;;;;;;0.40;0.40;;;16.90;61.60;;;;;;5112146;28;20170;-62
2024/01/04 07:31:55;;;;;;;0.47;0.43;;;16.90;61.50;;;;;;5111558;28;20230;-63
2024/01/04 07:34:21;;;;;;;1.80;0.60;;;16.90;61.40;;;;;;5112242;28;20219;-63
2024/01/04 07:36:47;;;;;;;1.02;0.63;;;17.00;62.20;;;;;;5111972;28;20205;-63
2024/01/04 07:39:12;;;;;;;0.93;0.60;;;16.90;61.30;;;;;;5111722;28;20203;-63
2024/01/04 07:41:38;;;;;;;2.22;0.77;;;17.00;61.40;;;;;;5111956;28;20180;-63
2024/01/04 07:44:04;;;;;;;1.70;0.60;;;17.00;61.40;;;;;;5112225;28;20225;-63
2024/01/04 07:46:30;;;;;;;0.70;0.60;;;17.00;61.40;;;;;;5111187;28;20169;-63
2024/01/04 07:48:56;;;;;;;0.70;0.68;;;17.00;61.30;;;;;;5112280;28;20234;-63
2024/01/04 07:51:22;;;;;;;0.90;0.40;;;17.00;61.30;;;;;;5111936;28;20623;-62
2024/01/04 07:53:47;;;;;;;0.50;0.50;;;17.00;61.30;;;;;;5111330;28;20246;-63
2024/01/04 07:56:13;;;;;;;0.55;0.50;;;17.10;61.30;;;;;;5112013;28;20702;-63
2024/01/04 07:58:38;;;;;;;0.52;0.50;;;17.10;61.30;;;;;;5112103;28;20308;-63
2024/01/04 08:01:04;;;;;;;0.85;0.52;;;17.10;61.30;;;;;;5111241;28;20204;-63
2024/01/04 08:03:30;;;;;;;0.50;0.50;;;17.10;61.20;;;;;;5111906;28;20256;-63
2024/01/04 08:05:56;;;;;;;0.35;0.35;;;17.20;61.20;;;;;;5112122;28;20169;-63
2024/01/04 08:08:21;;;;;;;0.70;0.50;;;17.20;61.10;;;;;;5110981;28;20644;-63
2024/01/04 08:10:47;;;;;;;0.50;0.50;;;17.20;61.10;;;;;;5111929;28;20169;-63
2024/01/04 08:13:16;;;;;;;0.45;0.40;;;17.20;61.10;;;;;;5111118;28;20180;-63
2024/01/04 08:15:42;;;;;;;0.55;0.43;;;17.20;61.00;;;;;;5111767;28;20177;-63
2024/01/04 08:18:07;;;;;;;2.83;0.60;;;17.20;61.10;;;;;;5111723;28;20256;-63
2024/01/04 08:20:33;;;;;;;1.75;0.73;;;17.10;61.10;;;;;;5110946;28;20176;-63
2024/01/04 08:22:59;;;;;;;0.52;0.52;;;17.10;61.30;;;;;;5111743;28;20173;-63
2024/01/04 08:25:24;;;;;;;0.70;0.52;;;17.10;61.40;;;;;;5111506;28;20177;-63
2024/01/04 08:27:50;;;;;;;0.50;0.50;;;17.10;61.40;;;;;;5110981;28;20205;-63
2024/01/04 08:30:15;;;;;;;1.40;0.65;;;17.10;61.40;;;;;;5111236;28;20552;-63
2024/01/04 08:32:41;;;;;;;2.10;0.50;;;17.10;61.40;;;;;;5111902;28;20177;-63
2024/01/04 08:35:07;;;;;;;0.55;0.50;;;17.10;61.30;;;;;;5110977;28;20558;-63
2024/01/04 08:37:33;;;;;;;0.68;0.50;;;17.10;61.30;;;;;;5111480;28;20332;-63
2024/01/04 08:39:58;;;;;;;0.85;0.55;;;17.20;61.30;;;;;;5111593;28;20643;-63
2024/01/04 08:42:24;;;;;;;0.47;0.47;;;17.20;61.30;;;;;;5110722;28;20165;-63
2024/01/04 08:44:49;;;;;;;0.88;0.45;;;17.20;61.30;;;;;;5111578;28;20169;-64
2024/01/04 08:47:15;;;;;;;0.82;0.77;;;17.20;61.30;;;;;;5111307;28;20205;-64
2024/01/04 08:49:40;;;;;;;3.90;1.20;;;17.20;61.30;;;;;;5113908;28;20208;-63
2024/01/04 08:52:06;;;;;;;0.73;0.55;;;17.30;61.50;;;;;;5115413;28;20635;-65
2024/01/04 08:54:31;;;;;;;0.80;0.60;;;17.30;61.70;;;;;;5114891;28;20173;-64
2024/01/04 08:56:57;;;;;;;0.88;0.80;;;17.30;61.70;;;;;;5114396;28;20213;-64
2024/01/04 08:59:23;;;;;;;3.40;0.90;;;17.40;61.80;;;;;;5114627;28;20222;-63
2024/01/04 09:01:48;;;;;;;1.25;0.80;;;17.40;61.90;;;;;;5115242;28;20173;-62
2024/01/04 09:04:14;;;;;;;5.25;1.25;;;17.40;61.70;;;;;;5099198;28;20173;-64
2024/01/04 09:06:40;;;;;;;3.83;1.05;;;17.40;61.70;;;;;;5084565;28;20170;-64
2024/01/04 09:09:07;;;;;;;2.08;1.00;;;17.40;61.70;;;;;;5082989;28;20186;-64
2024/01/04 09:11:38;;;;;;;1.17;0.68;;;17.50;61.80;;;;;;5084765;28;20166;-64
2024/01/04 09:14:07;;;;;;;1.45;0.82;;;17.50;61.70;;;;;;5083062;28;20250;-64
2024/01/04 09:16:34;;;;;;;2.75;0.70;;;17.40;61.80;;;;;;5083535;28;20178;-65
2024/01/04 09:19:00;;;;;;;2.28;1.00;;;17.40;61.90;;;;;;5074302;28;20229;-66
2024/01/04 09:21:26;;;;;;;1.42;0.80;;;17.30;62.10;;;;;;5073945;28;20179;-62
2024/01/04 09:23:52;;;;;;;2.08;1.10;;;17.30;62.20;;;;;;5073344;28;20189;-62
2024/01/04 09:26:18;;;;;;;1.65;0.73;;;17.20;62.20;;;;;;5073795;28;20186;-62
2024/01/04 09:28:43;;;;;;;2.85;1.10;;;17.20;62.90;;;;;;5074044;28;20217;-64
2024/01/04 09:31:09;;;;;;;1.90;0.90;;;17.20;62.40;;;;;;5073382;28;20254;-64
2024/01/04 09:33:35;;;;;;;1.98;0.60;;;17.20;62.60;;;;;;5073556;28;20174;-64
2024/01/04 09:36:00;;;;;;;3.42;0.90;;;17.20;62.50;;;;;;5073888;28;20258;-64
2024/01/04 09:38:27;;;;;;;1.15;0.90;;;17.20;62.30;;;;;;5072862;28;20509;-63
2024/01/04 09:40:55;;;;;;;1.63;0.70;;;17.20;62.40;;;;;;5073718;28;20596;-64
2024/01/04 09:43:20;;;;;;;2.03;1.10;;;17.20;62.30;;;;;;5039410;28;20217;-64
2024/01/04 09:45:46;;;;;;;1.40;0.82;;;17.20;62.60;;;;;;5055263;28;20253;-63
2024/01/04 09:48:11;;;;;;;1.48;0.70;;;17.20;62.70;;;;;;5039096;28;20296;-63
2024/01/04 09:50:38;;;;;;;3.75;0.90;;;17.20;62.80;;;;;;5038810;28;20664;-63
2024/01/04 09:53:04;;;;;;;0.80;0.60;;;17.10;62.70;;;;;;5055103;28;20227;-63
2024/01/04 09:55:30;;;;;;;2.20;1.10;;;17.10;62.70;;;;;;5080537;28;20312;-63
2024/01/04 09:57:56;;;;;;;0.73;0.60;;;17.10;62.60;;;;;;5075909;28;20185;-65
2024/01/04 10:00:22;;;;;;;3.05;0.85;;;17.10;62.70;;;;;;5092525;28;20256;-65
2024/01/04 10:02:49;;;;;;;2.00;0.93;;;17.10;62.70;;;;;;5093652;28;20250;-65
2024/01/04 10:05:15;;;;;;;1.08;0.80;;;17.10;62.70;;;;;;5059181;28;20243;-65
2024/01/04 10:07:44;;;;;;;1.90;1.02;;;17.10;62.90;;;;;;5092726;28;20205;-65
2024/01/04 10:10:15;;;;;;;1.83;0.60;;;17.10;62.90;;;;;;5093254;28;20174;-64
2024/01/04 10:12:42;;;;;;;1.92;0.90;;;17.10;63.10;;;;;;5058801;28;20174;-63
2024/01/04 10:15:11;;;;;;;3.10;1.00;;;17.00;63.50;;;;;;5075598;28;20253;-63
2024/01/04 10:17:37;;;;;;;2.05;1.20;;;17.00;63.20;;;;;;5093089;28;20208;-63
2024/01/04 10:20:04;;;;;;;1.42;0.88;;;16.90;63.20;;;;;;5092650;28;20170;-63
2024/01/04 10:22:29;;;;;;;2.90;1.00;;;16.90;63.10;;;;;;5092908;28;20243;-63
2024/01/04 10:25:04;;;;;;;0.93;0.88;;;16.80;63.20;;;;;;5074862;28;20735;-63
2024/01/04 10:27:30;;;;;;;0.88;0.80;;;16.80;63.30;;;;;;5058601;28;20234;-63
2024/01/04 10:30:02;;;;;;;1.17;1.00;;;16.80;63.40;;;;;;5093112;28;20170;-63
2024/01/04 10:32:28;;;;;;;1.20;1.05;;;16.80;63.40;;;;;;5092695;28;20185;-64
2024/01/04 10:35:02;;;;;;;1.45;0.88;;;16.80;63.30;;;;;;5074186;28;20174;-64
2024/01/04 10:37:28;;;;;;;3.00;1.15;;;16.70;63.30;;;;;;5074890;28;20647;-63
2024/01/04 10:39:57;;;;;;;0.90;0.70;;;16.70;63.40;;;;;;5092814;28;20180;-64
2024/01/04 10:42:23;;;;;;;2.28;1.35;;;16.70;63.50;;;;;;5091748;28;20688;-64
2024/01/04 10:44:52;;;;;;;1.63;0.90;;;16.70;63.60;;;;;;5092868;28;20184;-64
2024/01/04 10:47:17;;;;;;;1.92;1.00;;;16.60;63.60;;;;;;5092343;28;20201;-63
2024/01/04 10:49:44;;;;;;;2.42;0.93;;;16.60;63.60;;;;;;5091888;28;20234;-63
2024/01/04 10:52:15;;;;;;;1.58;0.82;;;16.60;63.70;;;;;;5057877;28;20178;-64
2024/01/04 10:54:41;;;;;;;2.25;1.05;;;16.60;63.70;;;;;;5074769;28;20632;-64
2024/01/04 10:57:08;;;;;;;1.83;1.00;;;16.60;63.70;;;;;;5091959;28;20182;-64
2024/01/04 10:59:33;;;;;;;1.52;0.95;;;16.60;63.60;;;;;;5092129;28;20696;-63
2024/01/04 11:02:01;;;;;;;1.65;0.98;;;16.60;63.60;;;;;;5057106;28;20181;-63
2024/01/04 11:04:28;;;;;;;1.48;0.90;;;16.60;63.60;;;;;;5092291;28;20184;-63
2024/01/04 11:06:54;;;;;;;1.00;0.82;;;16.60;63.60;;;;;;5092423;28;20181;-63
2024/01/04 11:09:20;;;;;;;1.50;0.80;;;16.60;63.70;;;;;;5091579;28;20275;-63
2024/01/04 11:11:51;;;;;;;2.33;0.90;;;16.60;63.70;;;;;;5091689;28;20197;-64
2024/01/04 11:14:23;;;;;;;1.45;0.70;;;16.60;63.80;;;;;;5074698;28;20174;-63
2024/01/04 11:17:15;;;;;;;0.82;0.82;;;16.50;63.70;;;;;;5091487;28;20231;-63
2024/01/04 11:19:49;;;;;;;1.10;0.75;;;16.60;63.80;;;;;;5074085;28;20177;-63
2024/01/04 11:22:27;;;;;;;2.20;1.08;;;16.60;64.00;;;;;;5091768;28;20177;-63
2024/01/04 11:25:01;;;;;;;1.10;0.82;;;16.50;63.90;;;;;;5091350;28;20220;-63
2024/01/04 11:27:27;;;;;;;2.15;0.77;;;16.50;64.00;;;;;;5073852;28;20237;-63
2024/01/04 11:29:53;;;;;;;1.42;0.88;;;16.50;64.70;;;;;;5074117;28;20208;-63
2024/01/04 11:32:18;;;;;;;0.98;0.68;;;16.50;63.80;;;;;;5056132;28;20192;-64
2024/01/04 11:34:44;;;;;;;0.80;0.80;;;16.50;63.80;;;;;;5073936;28;20174;-64
2024/01/04 11:37:10;;;;;;;0.88;0.60;;;16.50;63.70;;;;;;5091203;28;20166;-64
2024/01/04 11:39:53;;;;;;;0.73;0.68;;;16.50;63.80;;;;;;5091429;28;20181;-65
2024/01/04 11:42:19;;;;;;;2.10;0.90;;;16.50;63.80;;;;;;5091775;28;20174;-64
2024/01/04 11:44:49;;;;;;;1.33;1.20;;;16.50;63.70;;;;;;5091218;28;20178;-64
2024/01/04 11:47:15;;;;;;;0.85;0.70;;;16.40;63.70;;;;;;5091295;28;20740;-64
2024/01/04 11:49:47;;;;;;;1.42;0.95;;;16.40;63.70;;;;;;5091770;28;20264;-64
2024/01/04 11:52:14;;;;;;;2.45;0.98;;;16.40;63.70;;;;;;5090963;28;20261;-64
2024/01/04 11:54:40;;;;;;;1.27;0.75;;;16.50;63.80;;;;;;5073920;28;20185;-64
2024/01/04 11:57:18;;;;;;;1.02;0.93;;;16.50;63.80;;;;;;5091833;28;20165;-63
2024/01/04 11:59:43;;;;;;;0.80;0.63;;;16.50;63.80;;;;;;5090971;28;20173;-63
2024/01/04 12:02:17;;;;;;;1.35;0.90;;;16.40;63.70;;;;;;5091561;28;20173;-63
2024/01/04 12:04:42;;;;;;;1.10;0.73;;;16.50;63.70;;;;;;5073622;28;20541;-63
2024/01/04 12:07:08;;;;;;;1.42;0.95;;;16.40;63.60;;;;;;5091022;28;20629;-63
2024/01/04 12:09:33;;;;;;;1.50;0.80;;;16.50;63.70;;;;;;5073423;28;20326;-63
2024/01/04 12:11:59;;;;;;;1.05;0.60;;;16.40;63.60;;;;;;5091656;28;20242;-64
2024/01/04 12:14:25;;;;;;;0.95;0.68;;;16.50;63.70;;;;;;5090426;28;20710;-63
2024/01/04 12:16:50;;;;;;;0.65;0.65;;;16.40;63.70;;;;;;5091414;28;20188;-63
2024/01/04 12:19:16;;;;;;;0.93;0.70;;;16.40;63.70;;;;;;5090792;28;20209;-63
2024/01/04 12:21:41;;;;;;;1.00;0.80;;;16.40;63.70;;;;;;5091290;28;20213;-63
2024/01/04 12:24:07;;;;;;;1.30;0.90;;;16.40;63.60;;;;;;5095508;28;20261;-63
2024/01/04 12:26:32;;;;;;;1.48;0.70;;;16.40;63.60;;;;;;5094481;28;20198;-63
2024/01/04 12:29:00;;;;;;;1.73;0.80;;;16.40;63.60;;;;;;5077255;28;20244;-63
2024/01/04 12:31:26;;;;;;;1.30;0.85;;;16.50;63.70;;;;;;5094891;28;20698;-64
2024/01/04 12:33:57;;;;;;;0.73;0.73;;;16.50;63.60;;;;;;5059823;28;20190;-64
2024/01/04 12:36:22;;;;;;;1.15;0.80;;;16.40;63.70;;;;;;5095128;28;20215;-64
2024/01/04 12:38:53;;;;;;;1.35;0.82;;;16.40;63.70;;;;;;5095409;28;20185;-64
2024/01/04 12:41:25;;;;;;;0.63;0.63;;;16.40;63.80;;;;;;5094320;28;20268;-64
2024/01/04 12:43:53;;;;;;;1.30;0.88;;;16.40;63.80;;;;;;5095122;28;20177;-64